Time;durP1;ratioP1;P1;durP2;ratioP2;P2;SDS_P1;SDS_P2;PMS_P1;PMS_P2;Temp;Humidity;BMP_temperature;BMP_pressure;BME280_temperature;BME280_humidity;BME280_pressure;Samples;Min_cycle;Max_cycle;Signal;HPM_P1;HPM_P2
2021/07/25 00:00:08;;;;;;;0.10;0.10;;;;;;;13.02;63.96;97801.53;5075603;28;20040;-75
2021/07/25 00:02:34;;;;;;;0.10;0.10;;;;;;;13.00;63.96;97804.56;5074868;28;20057;-73
2021/07/25 00:05:01;;;;;;;0.10;0.10;;;;;;;12.99;63.79;97802.91;5075055;28;20051;-73
2021/07/25 00:07:27;;;;;;;0.20;0.20;;;;;;;12.95;64.23;97813.63;5074867;28;20040;-72
2021/07/25 00:09:52;;;;;;;0.20;0.20;;;;;;;12.93;64.03;97813.09;5074924;28;20408;-74
2021/07/25 00:12:18;;;;;;;0.10;0.10;;;;;;;12.91;64.14;97815.31;5056319;28;20039;-72
2021/07/25 00:14:44;;;;;;;0.10;0.10;;;;;;;12.89;64.03;97803.72;5074611;28;20056;-73
2021/07/25 00:17:10;;;;;;;0.13;0.13;;;;;;;12.85;64.32;97813.63;5074939;28;20465;-76
2021/07/25 00:19:36;;;;;;;0.30;0.30;;;;;;;12.84;64.35;97808.38;5074902;28;20044;-76
2021/07/25 00:22:03;;;;;;;0.10;0.10;;;;;;;12.85;64.13;97819.13;5074548;28;20040;-75
2021/07/25 00:24:34;;;;;;;0.10;0.10;;;;;;;12.91;63.98;97825.47;5074883;28;20465;-73
2021/07/25 00:27:01;;;;;;;0.40;0.40;;;;;;;12.92;64.18;97819.69;5074625;28;20048;-75
2021/07/25 00:29:31;;;;;;;0.20;0.20;;;;;;;12.93;63.75;97820.53;5075888;28;20098;-75
2021/07/25 00:32:01;;;;;;;0.13;0.13;;;;;;;12.90;64.06;97827.41;5091425;28;20021;-75
2021/07/25 00:34:29;;;;;;;0.10;0.10;;;;;;;12.91;63.94;97828.22;5082097;28;20108;-76
2021/07/25 00:36:55;;;;;;;0.13;0.13;;;;;;;12.91;64.05;97836.50;5076358;28;20199;-76
2021/07/25 00:39:20;;;;;;;0.10;0.10;;;;;;;12.84;64.31;97834.03;5074429;28;20139;-76
2021/07/25 00:41:46;;;;;;;0.30;0.30;;;;;;;12.80;64.38;97836.50;5074036;28;20033;-76
2021/07/25 00:44:12;;;;;;;0.10;0.10;;;;;;;12.80;64.31;97839.25;5074554;28;20037;-75
2021/07/25 00:46:37;;;;;;;0.10;0.10;;;;;;;12.83;63.83;97832.38;5074462;28;20420;-75
2021/07/25 00:49:03;;;;;;;0.20;0.20;;;;;;;12.84;63.84;97838.69;5074007;28;20068;-75
2021/07/25 00:51:30;;;;;;;0.20;0.20;;;;;;;12.84;64.03;97833.19;5073461;28;20411;-74
2021/07/25 00:53:56;;;;;;;0.10;0.10;;;;;;;12.83;64.26;97832.38;5074328;28;20123;-74
2021/07/25 00:56:21;;;;;;;0.10;0.10;;;;;;;12.78;64.29;97818.59;5074050;28;20578;-75
2021/07/25 00:58:47;;;;;;;0.10;0.10;;;;;;;12.71;64.09;97818.03;5073860;28;20090;-73
2021/07/25 01:01:14;;;;;;;0.10;0.10;;;;;;;12.67;64.30;97822.44;5074296;28;20043;-76
2021/07/25 01:04:07;;;;;;;0.20;0.20;;;;;;;12.68;64.14;97837.88;5052796;28;20516;-76
2021/07/25 01:06:38;;;;;;;0.32;0.32;;;;;;;12.70;63.97;97835.66;5045986;28;20495;-77
2021/07/25 01:09:19;;;;;;;0.30;0.30;;;;;;;12.67;63.96;97837.03;5054057;28;20076;-77
2021/07/25 01:12:06;;;;;;;0.43;0.43;;;;;;;12.70;64.16;97871.47;5053782;28;20450;-76
2021/07/25 01:14:38;;;;;;;0.10;0.10;;;;;;;12.66;63.92;97887.72;5053575;28;20491;-77
2021/07/25 01:17:22;;;;;;;0.20;0.20;;;;;;;12.66;63.98;97892.38;5053783;28;20521;-74
2021/07/25 01:19:49;;;;;;;0.10;0.10;;;;;;;12.64;63.93;97900.91;5054067;28;20044;-75
2021/07/25 01:22:15;;;;;;;0.10;0.10;;;;;;;12.64;63.70;97917.44;5053657;28;20045;-75
2021/07/25 01:24:41;;;;;;;0.10;0.10;;;;;;;12.62;63.90;97917.72;5053967;28;20045;-76
2021/07/25 01:27:11;;;;;;;0.10;0.10;;;;;;;12.62;63.82;97903.13;5053970;28;20044;-75
2021/07/25 01:29:40;;;;;;;0.10;0.10;;;;;;;12.66;63.70;97920.75;5053830;28;20411;-71
2021/07/25 01:32:06;;;;;;;0.10;0.10;;;;;;;12.70;63.48;97916.34;5053322;28;20059;-70
2021/07/25 01:34:34;;;;;;;0.15;0.15;;;;;;;12.82;63.08;97929.88;5053157;28;20041;-72
2021/07/25 01:37:01;;;;;;;0.10;0.10;;;;;;;12.97;62.62;97921.66;5053140;28;20124;-75
2021/07/25 01:39:27;;;;;;;0.10;0.10;;;;;;;13.11;62.19;97927.47;5052975;28;20045;-73
2021/07/25 01:41:53;;;;;;;0.20;0.20;;;;;;;13.19;61.81;97923.38;5052270;28;20044;-73
2021/07/25 01:44:19;;;;;;;0.10;0.10;;;;;;;13.28;61.57;97923.63;5053233;28;20119;-73
2021/07/25 01:46:45;;;;;;;0.20;0.20;;;;;;;13.33;61.59;97924.47;5051952;28;20123;-73
2021/07/25 01:49:11;;;;;;;0.15;0.15;;;;;;;13.36;61.60;97934.16;5052957;28;20041;-73
2021/07/25 01:51:37;;;;;;;0.10;0.10;;;;;;;13.35;61.47;97926.16;5067928;28;20041;-73
2021/07/25 01:54:03;;;;;;;0.13;0.13;;;;;;;13.38;61.16;97936.63;5051766;28;20044;-73
2021/07/25 01:56:29;;;;;;;0.10;0.10;;;;;;;13.49;61.11;97930.84;5052900;28;20037;-72
2021/07/25 01:58:56;;;;;;;0.57;0.30;;;;;;;13.73;60.30;97929.47;5052914;28;20099;-72
2021/07/25 02:01:23;;;;;;;0.10;0.10;;;;;;;14.11;59.44;97936.31;5053239;28;20048;-73
2021/07/25 02:03:49;;;;;;;0.10;0.10;;;;;;;14.34;59.08;97936.81;5043544;28;20041;-73
2021/07/25 02:06:15;;;;;;;0.10;0.10;;;;;;;14.38;58.63;97943.41;5052750;28;20141;-74
2021/07/25 02:08:41;;;;;;;0.10;0.10;;;;;;;14.34;58.82;97937.63;5052635;28;20498;-73
2021/07/25 02:11:08;;;;;;;0.20;0.20;;;;;;;14.28;59.01;97944.28;5052128;28;20044;-73
2021/07/25 02:13:34;;;;;;;0.10;0.10;;;;;;;14.25;59.19;97949.50;5052794;28;20072;-75
2021/07/25 02:16:00;;;;;;;0.22;0.20;;;;;;;14.29;59.41;97953.38;5052897;28;20053;-75
2021/07/25 02:18:27;;;;;;;0.10;0.10;;;;;;;14.26;59.17;97959.47;5052969;28;20094;-77
2021/07/25 02:20:53;;;;;;;0.28;0.28;;;;;;;14.28;59.28;97963.59;5052525;28;20124;-75
2021/07/25 02:23:19;;;;;;;0.10;0.10;;;;;;;14.44;58.89;97969.06;5052227;28;20152;-73
2021/07/25 02:25:45;;;;;;;0.10;0.10;;;;;;;14.61;58.25;97974.28;5052633;28;20556;-78
2021/07/25 02:28:10;;;;;;;0.10;0.10;;;;;;;15.12;57.05;97978.75;5052466;28;20431;-77
2021/07/25 02:30:36;;;;;;;0.10;0.10;;;;;;;15.49;56.28;97986.56;5052574;28;20142;-76
2021/07/25 02:33:03;;;;;;;1.00;0.50;;;;;;;15.42;56.45;97986.06;5052697;28;20047;-75
2021/07/25 02:35:29;;;;;;;0.43;0.43;;;;;;;15.32;57.05;97991.66;5052524;28;20045;-76
2021/07/25 02:37:55;;;;;;;0.10;0.10;;;;;;;15.08;57.46;98000.63;5052699;28;20384;-77
2021/07/25 02:40:21;;;;;;;0.10;0.10;;;;;;;14.97;57.85;98004.56;5054655;28;20052;-76
2021/07/25 02:42:46;;;;;;;0.10;0.10;;;;;;;14.86;58.08;98012.06;5067876;28;20040;-75
2021/07/25 02:45:12;;;;;;;5.07;0.40;;;;;;;14.74;58.13;98022.59;5060118;28;20041;-72
2021/07/25 02:47:38;;;;;;;0.10;0.10;;;;;;;14.62;58.26;98021.00;5052856;28;20052;-74
2021/07/25 02:50:05;;;;;;;0.17;0.17;;;;;;;14.50;58.71;98026.78;5050912;28;20045;-74
2021/07/25 02:52:31;;;;;;;0.10;0.10;;;;;;;14.34;59.00;98026.00;5052043;28;20538;-81
2021/07/25 02:54:56;;;;;;;0.10;0.10;;;;;;;14.19;59.41;98024.09;5052545;28;20517;-74
2021/07/25 02:57:22;;;;;;;0.30;0.30;;;;;;;14.04;59.65;98037.88;5052307;28;20051;-74
2021/07/25 02:59:48;;;;;;;0.10;0.10;;;;;;;13.83;59.95;98032.38;5052479;28;20087;-75
2021/07/25 03:02:14;;;;;;;0.20;0.20;;;;;;;13.77;60.00;98039.00;5049263;28;20041;-74
2021/07/25 03:04:41;;;;;;;0.10;0.10;;;;;;;13.64;60.19;98034.84;5072194;28;20040;-74
2021/07/25 03:07:07;;;;;;;0.35;0.25;;;;;;;13.61;59.83;98032.63;5072147;28;20517;-75
2021/07/25 03:09:33;;;;;;;0.10;0.10;;;;;;;13.66;59.76;98031.78;5071929;28;20085;-74
2021/07/25 03:11:59;;;;;;;11.57;0.60;;;;;;;13.72;59.50;98035.38;5071628;28;20043;-73
2021/07/25 03:14:24;;;;;;;0.20;0.20;;;;;;;13.84;58.86;98044.25;5072335;28;20040;-74
2021/07/25 03:16:50;;;;;;;0.10;0.10;;;;;;;13.89;58.75;98040.66;5076201;28;20438;-76
2021/07/25 03:19:16;;;;;;;0.10;0.10;;;;;;;13.97;58.61;98035.41;5075561;28;20040;-73
2021/07/25 03:21:41;;;;;;;0.10;0.10;;;;;;;14.15;57.97;98039.53;5075420;28;20045;-73
2021/07/25 03:24:07;;;;;;;0.10;0.10;;;;;;;14.46;57.03;98036.75;5072455;28;20048;-72
2021/07/25 03:26:33;;;;;;;0.10;0.10;;;;;;;15.03;55.91;98042.13;5075659;28;20131;-75
2021/07/25 03:28:59;;;;;;;0.13;0.13;;;;;;;15.49;54.80;98039.13;5075993;28;20041;-77
2021/07/25 03:31:25;;;;;;;0.10;0.10;;;;;;;15.82;54.12;98053.31;5074830;28;20432;-74
2021/07/25 03:33:50;;;;;;;0.10;0.10;;;;;;;16.82;52.14;98036.31;5075816;28;20052;-75
2021/07/25 03:36:16;;;;;;;0.10;0.10;;;;;;;18.14;49.36;98048.69;5075831;28;20047;-74
2021/07/25 03:38:42;;;;;;;0.10;0.10;;;;;;;18.07;49.93;98041.88;5075132;28;20040;-72
2021/07/25 03:41:08;;;;;;;0.10;0.10;;;;;;;18.04;50.29;98037.75;5074547;28;20047;-73
2021/07/25 03:43:33;;;;;;;0.10;0.10;;;;;;;17.87;50.85;98043.81;5075815;28;20048;-74
2021/07/25 03:46:00;;;;;;;0.10;0.10;;;;;;;18.60;49.65;98049.03;5057589;28;20166;-75
2021/07/25 03:48:27;;;;;;;0.10;0.10;;;;;;;20.45;45.97;98056.13;5074978;28;20105;-75
2021/07/25 03:50:53;;;;;;;0.10;0.10;;;;;;;20.27;46.47;98063.56;5074901;28;20059;-74
2021/07/25 03:53:19;;;;;;;0.10;0.10;;;;;;;19.66;48.16;98047.13;5074879;28;20491;-75
2021/07/25 03:55:46;;;;;;;0.10;0.10;;;;;;;18.93;49.76;98057.31;5074962;28;20189;-76
2021/07/25 03:58:12;;;;;;;0.40;0.40;;;;;;;21.44;45.13;98061.50;5074746;28;20521;-75
2021/07/25 04:00:38;;;;;;;0.10;0.10;;;;;;;24.95;39.52;98053.19;5074799;28;20059;-76
2021/07/25 04:03:04;;;;;;;0.10;0.10;;;;;;;27.56;35.79;98046.28;5066664;28;20057;-76
2021/07/25 04:05:30;;;;;;;0.75;0.30;;;;;;;29.61;33.76;98062.81;5074559;28;20051;-76
2021/07/25 04:07:56;;;;;;;0.10;0.10;;;;;;;28.70;36.39;98060.44;5074768;28;20111;-75
2021/07/25 04:10:22;;;;;;;0.10;0.10;;;;;;;25.80;41.31;98063.97;5074684;28;20518;-75
2021/07/25 04:12:48;;;;;;;0.10;0.10;;;;;;;22.87;46.72;98068.41;5074306;28;20463;-75
2021/07/25 04:15:14;;;;;;;0.10;0.10;;;;;;;21.26;50.08;98069.03;5056725;28;20048;-77
2021/07/25 04:17:40;;;;;;;0.10;0.10;;;;;;;20.98;50.29;98085.19;5074529;28;20067;-78
2021/07/25 04:20:07;;;;;;;0.10;0.10;;;;;;;24.45;43.08;98079.47;5074864;28;20487;-78
2021/07/25 04:22:37;;;;;;;0.10;0.10;;;;;;;26.78;38.82;98071.28;5074588;28;20075;-80
2021/07/25 04:25:04;;;;;;;0.10;0.10;;;;;;;26.60;39.13;98075.56;5074865;28;20457;-82
2021/07/25 04:27:30;;;;;;;0.20;0.20;;;;;;;25.66;41.31;98082.03;5073391;28;20536;-77
2021/07/25 04:29:57;;;;;;;0.10;0.10;;;;;;;25.81;40.84;98077.69;5074838;28;20048;-76
2021/07/25 04:32:23;;;;;;;0.10;0.10;;;;;;;25.85;40.78;98098.31;5074289;28;20461;-71
2021/07/25 04:34:49;;;;;;;0.10;0.10;;;;;;;26.86;39.07;98092.00;5074114;28;20051;-74
2021/07/25 04:37:23;;;;;;;0.10;0.10;;;;;;;28.52;36.62;98093.13;5074362;28;20458;-75
2021/07/25 04:39:49;;;;;;;;;;;;;;;29.96;35.04;98090.88;5075353;28;20405;-76
2021/07/25 04:42:24;;;;;;;0.10;0.10;;;;;;;31.24;33.40;98080.66;5073786;28;19970;-80
2021/07/25 04:44:54;;;;;;;0.10;0.10;;;;;;;31.78;33.12;98083.97;5074292;28;20097;-72
2021/07/25 04:47:23;;;;;;;0.10;0.10;;;;;;;32.20;32.68;98091.13;5075342;28;20048;-74
2021/07/25 04:50:00;;;;;;;0.10;0.10;;;;;;;32.65;32.59;98088.88;5098292;28;20095;-74
2021/07/25 04:52:30;;;;;;;0.10;0.10;;;;;;;33.04;32.23;98097.94;5074440;28;20078;-75
2021/07/25 04:54:59;;;;;;;0.10;0.10;;;;;;;33.12;32.35;98094.72;5073996;28;20135;-74
2021/07/25 04:57:26;;;;;;;0.10;0.10;;;;;;;33.23;32.85;98105.31;5073647;28;20114;-75
2021/07/25 04:59:54;;;;;;;0.10;0.10;;;;;;;33.04;33.01;98097.94;5073250;28;20040;-79
2021/07/25 05:02:24;;;;;;;0.10;0.10;;;;;;;32.99;32.95;98102.00;5073384;28;20054;-79
2021/07/25 05:04:50;;;;;;;0.10;0.10;;;;;;;32.84;33.46;98101.16;5073900;28;20098;-75
2021/07/25 05:07:16;;;;;;;0.10;0.10;;;;;;;32.88;33.48;98107.66;5073416;28;20125;-70
2021/07/25 05:09:42;;;;;;;0.10;0.10;;;;;;;32.89;33.39;98117.00;5073187;28;20052;-75
2021/07/25 05:12:30;;;;;;;0.10;0.10;;;;;;;32.76;33.19;98108.84;5072776;28;20131;-72
2021/07/25 05:15:03;;;;;;;0.10;0.10;;;;;;;33.07;32.89;98103.66;5073899;28;20376;-71
2021/07/25 05:17:41;;;;;;;0.10;0.10;;;;;;;33.18;32.69;98110.16;5073122;28;20032;-72
2021/07/25 05:20:18;;;;;;;0.10;0.10;;;;;;;33.24;32.69;98112.63;5073258;28;20047;-70
2021/07/25 05:23:03;;;;;;;0.20;0.20;;;;;;;32.23;34.05;98112.22;5073495;28;20048;-74
2021/07/25 05:25:31;;;;;;;0.10;0.10;;;;;;;32.14;34.13;98112.59;5073294;28;20043;-77
2021/07/25 05:28:05;;;;;;;0.10;0.10;;;;;;;32.45;33.36;98113.97;5073733;28;20039;-73
2021/07/25 05:30:32;;;;;;;0.10;0.10;;;;;;;32.93;32.95;98120.69;5073575;28;20214;-73
2021/07/25 05:32:57;;;;;;;0.10;0.10;;;;;;;33.64;31.75;98114.28;5073016;28;20064;-73
2021/07/25 05:35:23;;;;;;;0.10;0.10;;;;;;;34.15;31.15;98112.19;5071206;28;20130;-71
2021/07/25 05:38:29;;;;;;;0.10;0.10;;;;;;;34.01;31.30;98112.22;5067748;28;20106;-70
2021/07/25 05:41:35;;;;;;;0.05;0.05;;;;;;;31.57;34.13;98116.63;5031908;28;20535;-76
2021/07/25 05:44:00;;;;;;;0.10;0.10;;;;;;;27.88;39.44;98130.03;5033044;28;20618;-73
2021/07/25 05:46:26;;;;;;;0.00;0.00;;;;;;;25.18;43.43;98132.22;5033240;28;20120;-72
2021/07/25 05:48:52;;;;;;;0.10;0.10;;;;;;;23.55;45.29;98132.06;5033277;28;20403;-74
2021/07/25 05:51:17;;;;;;;0.10;0.10;;;;;;;22.47;46.39;98136.63;5032579;28;20029;-70
2021/07/25 05:53:43;;;;;;;0.10;0.10;;;;;;;21.47;46.81;98136.25;5048054;28;20056;-75
2021/07/25 05:56:09;;;;;;;0.10;0.10;;;;;;;20.56;47.40;98141.19;5032546;28;20100;-71
2021/07/25 05:58:36;;;;;;;0.10;0.10;;;;;;;19.91;47.53;98137.69;5032697;28;20068;-72
2021/07/25 06:01:01;;;;;;;0.10;0.10;;;;;;;19.59;47.00;98138.63;5032333;28;20060;-70
2021/07/25 06:03:27;;;;;;;0.10;0.10;;;;;;;19.18;46.66;98145.03;5042760;28;20067;-69
2021/07/25 06:05:53;;;;;;;0.10;0.10;;;;;;;18.72;46.76;98144.72;5052301;28;20474;-70
2021/07/25 06:08:18;;;;;;;0.10;0.10;;;;;;;18.60;46.26;98149.94;5052297;28;20116;-70
2021/07/25 06:10:44;;;;;;;0.10;0.10;;;;;;;18.47;45.59;98145.97;5051898;28;20055;-70
2021/07/25 06:13:11;;;;;;;0.10;0.10;;;;;;;18.35;45.21;98148.41;5051732;28;20079;-67
2021/07/25 06:15:37;;;;;;;0.10;0.10;;;;;;;18.34;44.58;98142.03;5052390;28;20052;-68
2021/07/25 06:18:05;;;;;;;0.10;0.10;;;;;;;18.43;43.80;98144.09;5052390;28;20503;-70
2021/07/25 06:20:32;;;;;;;0.10;0.10;;;;;;;18.33;43.57;98147.88;5051915;28;20044;-69
2021/07/25 06:22:59;;;;;;;0.10;0.10;;;;;;;18.20;43.46;98152.25;5052402;28;20098;-72
2021/07/25 06:25:29;;;;;;;0.10;0.10;;;;;;;18.28;43.00;98143.22;5052106;28;20095;-72
2021/07/25 06:27:57;;;;;;;0.10;0.10;;;;;;;18.24;42.80;98146.91;5052750;28;20389;-73
2021/07/25 06:30:24;;;;;;;0.10;0.10;;;;;;;18.37;42.21;98137.78;5052454;28;20047;-75
2021/07/25 06:33:00;;;;;;;1.52;1.02;;;;;;;18.56;41.67;98152.50;5052163;28;20495;-75
2021/07/25 06:35:31;;;;;;;0.25;0.25;;;;;;;18.59;41.26;98147.47;5052276;28;20037;-72
2021/07/25 06:37:58;;;;;;;0.10;0.10;;;;;;;18.78;40.95;98152.97;5051915;28;20118;-72
2021/07/25 06:40:25;;;;;;;0.10;0.10;;;;;;;18.78;40.73;98155.75;5052562;28;20041;-73
2021/07/25 06:42:52;;;;;;;0.10;0.10;;;;;;;18.48;41.20;98158.75;5051752;28;20045;-72
2021/07/25 06:45:17;;;;;;;0.10;0.10;;;;;;;18.08;41.57;98155.47;5051930;28;20036;-71
2021/07/25 06:47:50;;;;;;;0.10;0.10;;;;;;;17.75;42.07;98157.28;5052079;28;20049;-73
2021/07/25 06:50:18;;;;;;;0.10;0.10;;;;;;;17.61;42.06;98144.16;5054190;28;20103;-71
2021/07/25 06:52:44;;;;;;;0.10;0.10;;;;;;;17.62;41.99;98158.84;5057835;28;20105;-74
2021/07/25 06:55:11;;;;;;;0.10;0.10;;;;;;;17.65;41.67;98161.03;5066145;28;20075;-74
2021/07/25 06:57:37;;;;;;;0.10;0.10;;;;;;;17.64;41.78;98160.22;5049207;28;20047;-72
2021/07/25 07:00:04;;;;;;;0.10;0.10;;;;;;;17.59;41.47;98149.16;5056027;28;20573;-69
2021/07/25 07:02:51;;;;;;;0.10;0.10;;;;;;;17.63;41.07;98166.88;5056130;28;20047;-73
2021/07/25 07:05:19;;;;;;;0.15;0.15;;;;;;;17.56;41.08;98165.59;5056211;28;20037;-72
2021/07/25 07:07:46;;;;;;;0.40;0.30;;;;;;;17.45;40.97;98160.16;5056175;28;20033;-73
2021/07/25 07:10:13;;;;;;;0.10;0.10;;;;;;;17.47;40.96;98162.63;5056213;28;20072;-72
2021/07/25 07:12:38;;;;;;;0.10;0.10;;;;;;;17.50;40.88;98162.03;5055495;28;20068;-74
2021/07/25 07:15:06;;;;;;;0.10;0.10;;;;;;;17.60;40.74;98152.78;5055599;28;20553;-71
2021/07/25 07:17:32;;;;;;;3.55;0.60;;;;;;;17.61;40.44;98162.75;5055777;28;20037;-71
2021/07/25 07:19:58;;;;;;;0.10;0.10;;;;;;;17.47;40.61;98169.00;5055841;28;20051;-73
2021/07/25 07:22:30;;;;;;;0.10;0.10;;;;;;;17.45;40.50;98164.91;5055678;28;20044;-71
2021/07/25 07:24:57;;;;;;;0.20;0.20;;;;;;;17.26;40.96;98154.56;5055524;28;20041;-72
2021/07/25 07:27:24;;;;;;;0.10;0.10;;;;;;;17.11;41.08;98171.38;5055243;28;20171;-72
2021/07/25 07:29:51;;;;;;;0.10;0.10;;;;;;;16.99;41.00;98178.16;5055156;28;20505;-73
2021/07/25 07:35:40;;;;;;;0.10;0.10;;;;;;;17.11;40.79;98163.88;5052035;28;20044;-69
2021/07/25 07:38:07;;;;;;;0.22;0.22;;;;;;;17.40;40.21;98163.00;5055043;28;20047;-71
2021/07/25 07:40:34;;;;;;;0.10;0.10;;;;;;;17.71;39.67;98159.84;5054944;28;20037;-71
2021/07/25 07:43:01;;;;;;;0.10;0.10;;;;;;;17.77;39.56;98166.16;5054185;28;20083;-70
2021/07/25 07:45:28;;;;;;;0.10;0.10;;;;;;;17.73;39.59;98157.59;5055023;28;20041;-68
2021/07/25 07:47:54;;;;;;;0.10;0.10;;;;;;;17.72;39.69;98164.25;5054924;28;20442;-69
2021/07/25 07:50:20;;;;;;;0.10;0.10;;;;;;;17.87;39.56;98171.56;5054788;28;20041;-68
2021/07/25 07:52:46;;;;;;;0.17;0.17;;;;;;;18.14;39.03;98159.03;5054554;28;20183;-69
2021/07/25 07:55:13;;;;;;;0.10;0.10;;;;;;;18.34;38.82;98155.06;5054657;28;20040;-68
2021/07/25 07:57:38;;;;;;;0.10;0.10;;;;;;;18.32;38.86;98165.69;5054869;28;20040;-69
2021/07/25 08:00:05;;;;;;;0.13;0.13;;;;;;;18.18;38.91;98155.34;5051547;28;20045;-70
2021/07/25 08:02:31;;;;;;;0.25;0.25;;;;;;;18.13;39.21;98158.16;5054437;28;20061;-71
2021/07/25 08:05:01;;;;;;;0.10;0.10;;;;;;;18.21;39.00;98165.84;5049114;28;20057;-67
2021/07/25 08:07:27;;;;;;;0.10;0.10;;;;;;;18.25;38.86;98154.13;5054978;28;20053;-69
2021/07/25 08:09:52;;;;;;;0.10;0.10;;;;;;;18.55;38.43;98148.06;5054828;28;20124;-72
2021/07/25 08:12:18;;;;;;;0.30;0.30;;;;;;;18.82;38.08;98151.25;5052710;28;20045;-68
2021/07/25 08:14:44;;;;;;;0.20;0.20;;;;;;;18.91;37.86;98155.00;5054143;28;20423;-68
2021/07/25 08:17:10;;;;;;;0.10;0.10;;;;;;;18.87;38.12;98160.34;5054384;28;20397;-70
2021/07/25 08:19:36;;;;;;;0.10;0.10;;;;;;;18.86;38.02;98158.69;5054032;28;20044;-70
2021/07/25 08:22:02;;;;;;;0.17;0.17;;;;;;;18.89;37.89;98155.31;5052937;28;20037;-73
2021/07/25 08:24:28;;;;;;;1.10;0.28;;;;;;;19.04;37.65;98122.78;5054214;28;20064;-70
2021/07/25 08:26:54;;;;;;;0.10;0.10;;;;;;;19.00;37.96;98158.72;5041299;28;20475;-70
2021/07/25 08:29:20;;;;;;;0.10;0.10;;;;;;;18.94;37.95;98157.16;5034485;28;20040;-70
2021/07/25 08:31:46;;;;;;;0.10;0.10;;;;;;;18.82;38.11;98167.94;5034430;28;20503;-72
2021/07/25 08:34:12;;;;;;;0.13;0.13;;;;;;;18.62;38.41;98169.09;5033688;28;20479;-68
2021/07/25 08:36:38;;;;;;;1.75;0.30;;;;;;;18.39;38.81;98166.13;5034376;28;20065;-70
2021/07/25 08:39:04;;;;;;;0.10;0.10;;;;;;;18.38;38.69;98165.28;5034615;28;20430;-68
2021/07/25 08:41:32;;;;;;;0.10;0.10;;;;;;;18.56;38.58;98177.53;5033881;28;20041;-69
2021/07/25 08:44:15;;;;;;;0.10;0.10;;;;;;;18.82;38.30;98173.50;5040771;28;20095;-69
2021/07/25 08:46:44;;;;;;;0.30;0.20;;;;;;;18.93;37.83;98165.81;5054045;28;20041;-70
2021/07/25 08:49:16;;;;;;;0.10;0.10;;;;;;;18.92;37.78;98176.13;5053854;28;20044;-68
2021/07/25 08:51:55;;;;;;;0.10;0.10;;;;;;;19.10;37.52;98184.72;5053658;28;20033;-69
2021/07/25 08:54:22;;;;;;;0.10;0.10;;;;;;;19.13;37.62;98186.88;5053633;28;20526;-68
2021/07/25 08:56:48;;;;;;;0.10;0.10;;;;;;;19.07;37.81;98200.88;5053765;28;20064;-69
2021/07/25 08:59:15;;;;;;;0.10;0.10;;;;;;;19.03;37.73;98196.22;5053601;28;20120;-70
2021/07/25 09:01:42;;;;;;;0.10;0.10;;;;;;;19.00;37.83;98196.84;5053907;28;20518;-69
2021/07/25 09:04:08;;;;;;;0.10;0.10;;;;;;;18.94;37.91;98198.88;5056522;28;20499;-69
2021/07/25 09:06:41;;;;;;;0.10;0.10;;;;;;;18.87;38.15;98185.38;5065751;28;20037;-76
2021/07/25 09:09:08;;;;;;;0.20;0.20;;;;;;;18.78;38.12;98189.13;5053803;28;20037;-69
2021/07/25 09:11:36;;;;;;;0.10;0.10;;;;;;;18.67;38.53;98192.09;5052653;28;20039;-68
2021/07/25 09:14:03;;;;;;;0.10;0.10;;;;;;;18.64;38.41;98194.63;5052502;28;20045;-70
2021/07/25 09:16:34;;;;;;;0.10;0.10;;;;;;;18.73;38.19;98188.06;5052684;28;20329;-70
2021/07/25 09:19:00;;;;;;;0.10;0.10;;;;;;;18.76;38.11;98192.22;5053154;28;20650;-72
2021/07/25 09:21:39;;;;;;;0.10;0.10;;;;;;;18.70;38.19;98185.91;5053462;28;20388;-69
2021/07/25 09:24:19;;;;;;;0.13;0.13;;;;;;;18.64;38.39;98198.25;5052967;28;20056;-70
2021/07/25 09:27:02;;;;;;;0.10;0.10;;;;;;;18.52;38.23;98181.19;5053131;28;20048;-71
2021/07/25 09:29:37;;;;;;;0.10;0.10;;;;;;;18.39;38.41;98191.97;5053341;28;20049;-70
2021/07/25 09:32:15;;;;;;;0.15;0.15;;;;;;;18.40;38.20;98181.66;5052664;28;20128;-74
2021/07/25 09:34:41;;;;;;;0.10;0.10;;;;;;;18.51;38.12;98185.94;5052507;28;20076;-69
2021/07/25 09:37:15;;;;;;;0.13;0.13;;;;;;;18.75;37.60;98190.56;5053136;28;20044;-70
2021/07/25 09:39:47;;;;;;;0.10;0.10;;;;;;;18.95;37.39;98188.56;5052767;28;20045;-73
2021/07/25 09:42:13;;;;;;;0.82;0.50;;;;;;;19.24;36.94;98191.94;5051940;28;20044;-75
2021/07/25 09:44:53;;;;;;;0.35;0.35;;;;;;;19.58;36.16;98184.31;5051793;28;20446;-72
2021/07/25 09:47:37;;;;;;;0.10;0.10;;;;;;;19.76;36.18;98186.19;5052391;28;20099;-72
2021/07/25 09:50:05;;;;;;;0.10;0.10;;;;;;;19.66;36.46;98197.53;5052782;28;20037;-73
2021/07/25 09:52:36;;;;;;;0.10;0.10;;;;;;;19.41;36.61;98191.34;5053289;28;20055;-74
2021/07/25 09:55:05;;;;;;;0.10;0.10;;;;;;;19.19;37.17;98199.56;5051564;28;20525;-75
2021/07/25 09:57:31;;;;;;;0.10;0.10;;;;;;;19.01;37.20;98199.31;5052436;28;20049;-72
2021/07/25 10:00:08;;;;;;;0.10;0.10;;;;;;;19.01;37.55;98198.50;5052326;28;20049;-73
2021/07/25 10:02:39;;;;;;;0.10;0.10;;;;;;;18.89;37.43;98202.59;5052819;28;20053;-75
2021/07/25 10:05:13;;;;;;;0.10;0.10;;;;;;;18.76;37.68;98206.13;5052669;28;20064;-73
2021/07/25 10:07:40;;;;;;;0.10;0.10;;;;;;;18.91;37.43;98208.66;5053041;28;20103;-76
2021/07/25 10:10:11;;;;;;;0.20;0.20;;;;;;;19.17;37.07;98202.66;5052638;28;20144;-73
2021/07/25 10:12:43;;;;;;;1.15;0.35;;;;;;;19.49;36.68;98208.44;5051947;28;20045;-76
2021/07/25 10:15:14;;;;;;;0.10;0.10;;;;;;;19.70;36.11;98217.22;5052183;28;20056;-74
2021/07/25 10:17:45;;;;;;;0.10;0.10;;;;;;;20.01;35.66;98213.81;5052381;28;20060;-75
2021/07/25 10:20:12;;;;;;;0.10;0.10;;;;;;;20.27;35.42;98212.13;5052353;28;20576;-74
2021/07/25 10:22:40;;;;;;;0.10;0.10;;;;;;;20.55;35.08;98211.22;5052141;28;20084;-77
2021/07/25 10:25:09;;;;;;;0.20;0.17;;;;;;;20.58;35.08;98208.63;5051088;28;20048;-74
2021/07/25 10:27:39;;;;;;;0.85;0.85;;;;;;;20.54;34.97;98215.97;5052080;28;20041;-75
2021/07/25 10:30:09;;;;;;;0.10;0.10;;;;;;;20.56;35.49;98213.69;5051950;28;20045;-77
2021/07/25 10:32:38;;;;;;;1.20;0.35;;;;;;;20.41;35.53;98219.63;5028286;28;20503;-75
2021/07/25 10:35:07;;;;;;;0.10;0.10;;;;;;;20.15;36.10;98222.19;5045507;28;20080;-72
2021/07/25 10:37:36;;;;;;;0.15;0.15;;;;;;;19.98;36.08;98223.66;5052382;28;20098;-73
2021/07/25 10:40:04;;;;;;;0.20;0.20;;;;;;;19.92;36.31;98222.09;5052400;28;20442;-75
2021/07/25 10:42:32;;;;;;;0.10;0.10;;;;;;;19.90;36.53;98225.19;5051846;28;20039;-72
2021/07/25 10:44:58;;;;;;;0.60;0.47;;;;;;;19.68;36.65;98234.25;5051615;28;20518;-72
2021/07/25 10:47:27;;;;;;;0.20;0.20;;;;;;;19.52;36.82;98242.09;5049458;28;20047;-73
2021/07/25 10:50:02;;;;;;;0.30;0.30;;;;;;;19.42;36.90;98233.94;5046803;28;20041;-77
2021/07/25 10:52:59;;;;;;;0.22;0.20;;;;;;;19.45;36.96;98230.53;5051882;28;20060;-71
2021/07/25 10:55:38;;;;;;;0.30;0.30;;;;;;;19.51;36.55;98243.22;5051808;28;20511;-73
2021/07/25 10:58:08;;;;;;;0.20;0.20;;;;;;;19.69;36.34;98243.44;5052201;28;20499;-72
2021/07/25 11:00:51;;;;;;;0.10;0.10;;;;;;;19.91;35.91;98251.09;5051757;28;20168;-76
2021/07/25 11:03:26;;;;;;;0.10;0.10;;;;;;;20.08;35.51;98236.53;5061149;28;20060;-75
2021/07/25 11:06:11;;;;;;;0.15;0.15;;;;;;;20.07;35.53;98246.84;5071945;28;20436;-72
2021/07/25 11:08:43;;;;;;;0.10;0.10;;;;;;;20.07;35.64;98241.28;5071898;28;20503;-75
2021/07/25 11:11:34;;;;;;;0.10;0.10;;;;;;;20.13;35.57;98244.78;5071508;28;20119;-74
2021/07/25 11:14:02;;;;;;;0.17;0.17;;;;;;;20.23;35.40;98249.28;5086082;28;20051;-74
2021/07/25 11:16:29;;;;;;;0.10;0.10;;;;;;;20.31;35.28;98256.94;5077469;28;20040;-70
2021/07/25 11:18:56;;;;;;;0.10;0.10;;;;;;;20.30;35.50;98252.47;5071969;28;20063;-75
2021/07/25 11:21:36;;;;;;;0.10;0.10;;;;;;;20.18;35.49;98253.03;5072407;28;20072;-71
2021/07/25 11:24:26;;;;;;;0.10;0.10;;;;;;;19.84;36.04;98259.03;5072129;28;20526;-75
2021/07/25 11:26:59;;;;;;;0.10;0.10;;;;;;;19.48;36.67;98262.47;5057214;28;20044;-74
2021/07/25 11:29:33;;;;;;;0.15;0.15;;;;;;;19.19;36.91;98255.22;5072071;28;20108;-76
2021/07/25 11:32:01;;;;;;;0.10;0.10;;;;;;;18.97;37.21;98258.66;5055731;28;20080;-74
2021/07/25 11:34:36;;;;;;;0.10;0.10;;;;;;;18.82;37.34;98257.75;5033924;28;20071;-77
2021/07/25 11:37:05;;;;;;;0.10;0.10;;;;;;;18.65;37.73;98271.38;5054223;28;20047;-75
2021/07/25 11:39:32;;;;;;;0.10;0.10;;;;;;;18.52;37.80;98265.44;5037463;28;20044;-73
2021/07/25 11:41:58;;;;;;;0.20;0.20;;;;;;;18.38;37.88;98270.91;5059598;28;20048;-71
2021/07/25 11:44:29;;;;;;;0.13;0.13;;;;;;;18.29;37.95;98272.72;5064704;28;20032;-74